sensor_id;sensor_type;location;lat;lon;timestamp;temperature;humidity
51811;DHT22;52468;40.116;18.296;2023-09-30T00:00:34;20.10;82.90
51811;DHT22;52468;40.116;18.296;2023-09-30T00:03:02;20.10;83.10
51811;DHT22;52468;40.116;18.296;2023-09-30T00:05:31;20.10;83.20
51811;DHT22;52468;40.116;18.296;2023-09-30T00:07:58;20.10;83.20
51811;DHT22;52468;40.116;18.296;2023-09-30T00:10:26;20.00;83.10
51811;DHT22;52468;40.116;18.296;2023-09-30T00:12:54;20.00;83.20
51811;DHT22;52468;40.116;18.296;2023-09-30T00:15:22;20.00;83.30
51811;DHT22;52468;40.116;18.296;2023-09-30T00:17:50;20.00;83.20
51811;DHT22;52468;40.116;18.296;2023-09-30T00:20:18;20.00;83.40
51811;DHT22;52468;40.116;18.296;2023-09-30T00:22:46;19.90;83.50
51811;DHT22;52468;40.116;18.296;2023-09-30T00:25:14;19.90;83.50
51811;DHT22;52468;40.116;18.296;2023-09-30T00:27:42;19.90;83.50
51811;DHT22;52468;40.116;18.296;2023-09-30T00:30:10;19.90;83.50
51811;DHT22;52468;40.116;18.296;2023-09-30T00:32:38;19.80;83.60
51811;DHT22;52468;40.116;18.296;2023-09-30T00:35:07;19.80;83.60
51811;DHT22;52468;40.116;18.296;2023-09-30T00:37:39;19.80;83.60
51811;DHT22;52468;40.116;18.296;2023-09-30T00:40:08;19.80;83.80
51811;DHT22;52468;40.116;18.296;2023-09-30T00:42:44;19.70;83.80
51811;DHT22;52468;40.116;18.296;2023-09-30T00:45:14;19.70;83.70
51811;DHT22;52468;40.116;18.296;2023-09-30T00:47:41;19.70;83.90
51811;DHT22;52468;40.116;18.296;2023-09-30T00:50:10;19.60;84.00
51811;DHT22;52468;40.116;18.296;2023-09-30T00:52:40;19.60;84.00
51811;DHT22;52468;40.116;18.296;2023-09-30T00:55:08;19.60;84.10
51811;DHT22;52468;40.116;18.296;2023-09-30T00:57:38;19.60;84.10
51811;DHT22;52468;40.116;18.296;2023-09-30T01:00:08;19.60;84.10
51811;DHT22;52468;40.116;18.296;2023-09-30T01:02:40;19.60;83.90
51811;DHT22;52468;40.116;18.296;2023-09-30T01:05:12;19.60;84.10
51811;DHT22;52468;40.116;18.296;2023-09-30T01:07:40;19.60;84.30
51811;DHT22;52468;40.116;18.296;2023-09-30T01:10:08;19.50;84.30
51811;DHT22;52468;40.116;18.296;2023-09-30T01:12:36;19.60;84.30
51811;DHT22;52468;40.116;18.296;2023-09-30T01:15:05;19.50;84.40
51811;DHT22;52468;40.116;18.296;2023-09-30T01:17:34;19.50;84.60
51811;DHT22;52468;40.116;18.296;2023-09-30T01:20:02;19.50;84.50
51811;DHT22;52468;40.116;18.296;2023-09-30T01:22:33;19.50;84.50
51811;DHT22;52468;40.116;18.296;2023-09-30T01:25:01;19.50;84.50
51811;DHT22;52468;40.116;18.296;2023-09-30T01:27:29;19.50;84.50
51811;DHT22;52468;40.116;18.296;2023-09-30T01:29:57;19.50;84.50
51811;DHT22;52468;40.116;18.296;2023-09-30T01:32:25;19.40;84.60
51811;DHT22;52468;40.116;18.296;2023-09-30T01:34:54;19.40;84.60
51811;DHT22;52468;40.116;18.296;2023-09-30T01:37:22;19.40;84.70
51811;DHT22;52468;40.116;18.296;2023-09-30T01:39:54;19.40;84.70
51811;DHT22;52468;40.116;18.296;2023-09-30T01:42:22;19.40;84.70
51811;DHT22;52468;40.116;18.296;2023-09-30T01:44:50;19.40;84.60
51811;DHT22;52468;40.116;18.296;2023-09-30T01:47:18;19.30;84.90
51811;DHT22;52468;40.116;18.296;2023-09-30T01:49:46;19.40;84.60
51811;DHT22;52468;40.116;18.296;2023-09-30T01:52:15;19.40;84.60
51811;DHT22;52468;40.116;18.296;2023-09-30T01:54:43;19.40;84.60
51811;DHT22;52468;40.116;18.296;2023-09-30T01:57:11;19.40;84.60
51811;DHT22;52468;40.116;18.296;2023-09-30T01:59:39;19.30;84.50
51811;DHT22;52468;40.116;18.296;2023-09-30T02:02:07;19.30;84.50
51811;DHT22;52468;40.116;18.296;2023-09-30T02:04:36;19.30;84.70
51811;DHT22;52468;40.116;18.296;2023-09-30T02:07:04;19.30;84.60
51811;DHT22;52468;40.116;18.296;2023-09-30T02:09:32;19.30;84.60
51811;DHT22;52468;40.116;18.296;2023-09-30T02:12:01;19.20;84.50
51811;DHT22;52468;40.116;18.296;2023-09-30T02:14:29;19.20;84.70
51811;DHT22;52468;40.116;18.296;2023-09-30T02:16:57;19.20;84.70
51811;DHT22;52468;40.116;18.296;2023-09-30T02:19:25;19.20;84.80
51811;DHT22;52468;40.116;18.296;2023-09-30T02:21:58;19.30;84.50
51811;DHT22;52468;40.116;18.296;2023-09-30T02:24:26;19.30;84.80
51811;DHT22;52468;40.116;18.296;2023-09-30T02:26:54;19.30;84.90
51811;DHT22;52468;40.116;18.296;2023-09-30T02:29:23;19.40;84.90
51811;DHT22;52468;40.116;18.296;2023-09-30T02:31:51;19.50;85.00
51811;DHT22;52468;40.116;18.296;2023-09-30T02:34:19;19.50;85.10
51811;DHT22;52468;40.116;18.296;2023-09-30T02:36:47;19.60;84.90
51811;DHT22;52468;40.116;18.296;2023-09-30T02:39:15;19.60;84.70
51811;DHT22;52468;40.116;18.296;2023-09-30T02:41:44;19.60;84.70
51811;DHT22;52468;40.116;18.296;2023-09-30T02:44:11;19.70;84.70
51811;DHT22;52468;40.116;18.296;2023-09-30T02:46:41;19.60;84.90
51811;DHT22;52468;40.116;18.296;2023-09-30T02:49:08;19.70;85.10
51811;DHT22;52468;40.116;18.296;2023-09-30T02:51:37;19.70;85.20
51811;DHT22;52468;40.116;18.296;2023-09-30T02:54:05;19.80;85.50
51811;DHT22;52468;40.116;18.296;2023-09-30T02:56:33;19.90;85.50
51811;DHT22;52468;40.116;18.296;2023-09-30T02:59:01;19.90;85.70
51811;DHT22;52468;40.116;18.296;2023-09-30T03:01:29;20.00;85.50
51811;DHT22;52468;40.116;18.296;2023-09-30T03:03:58;20.00;85.60
51811;DHT22;52468;40.116;18.296;2023-09-30T03:06:26;20.00;85.60
51811;DHT22;52468;40.116;18.296;2023-09-30T03:08:54;20.00;85.50
51811;DHT22;52468;40.116;18.296;2023-09-30T03:11:22;20.10;85.50
51811;DHT22;52468;40.116;18.296;2023-09-30T03:13:50;20.10;85.30
51811;DHT22;52468;40.116;18.296;2023-09-30T03:16:18;20.10;85.30
51811;DHT22;52468;40.116;18.296;2023-09-30T03:18:47;20.10;85.30
51811;DHT22;52468;40.116;18.296;2023-09-30T03:21:16;20.10;85.20
51811;DHT22;52468;40.116;18.296;2023-09-30T03:23:44;20.00;85.30
51811;DHT22;52468;40.116;18.296;2023-09-30T03:26:12;20.00;85.30
51811;DHT22;52468;40.116;18.296;2023-09-30T03:28:41;20.00;85.10
51811;DHT22;52468;40.116;18.296;2023-09-30T03:31:08;20.00;85.30
51811;DHT22;52468;40.116;18.296;2023-09-30T03:33:37;20.00;85.30
51811;DHT22;52468;40.116;18.296;2023-09-30T03:36:08;20.00;85.40
51811;DHT22;52468;40.116;18.296;2023-09-30T03:38:37;20.00;85.30
51811;DHT22;52468;40.116;18.296;2023-09-30T03:41:05;20.00;85.10
51811;DHT22;52468;40.116;18.296;2023-09-30T03:43:35;20.00;85.10
51811;DHT22;52468;40.116;18.296;2023-09-30T03:46:08;20.00;85.10
51811;DHT22;52468;40.116;18.296;2023-09-30T03:48:37;20.00;85.20
51811;DHT22;52468;40.116;18.296;2023-09-30T03:51:13;20.00;85.10
51811;DHT22;52468;40.116;18.296;2023-09-30T03:53:41;20.00;85.20
51811;DHT22;52468;40.116;18.296;2023-09-30T03:56:10;20.00;85.00
51811;DHT22;52468;40.116;18.296;2023-09-30T03:58:41;20.00;85.20
51811;DHT22;52468;40.116;18.296;2023-09-30T04:01:10;20.00;85.20
51811;DHT22;52468;40.116;18.296;2023-09-30T04:03:47;20.00;85.10
51811;DHT22;52468;40.116;18.296;2023-09-30T04:06:15;20.00;85.20
51811;DHT22;52468;40.116;18.296;2023-09-30T04:08:43;20.00;85.20
51811;DHT22;52468;40.116;18.296;2023-09-30T04:11:11;20.00;85.20
51811;DHT22;52468;40.116;18.296;2023-09-30T04:13:45;20.00;84.90
51811;DHT22;52468;40.116;18.296;2023-09-30T04:16:13;20.00;85.00
51811;DHT22;52468;40.116;18.296;2023-09-30T04:18:41;19.90;85.10
51811;DHT22;52468;40.116;18.296;2023-09-30T04:21:08;19.90;84.90
51811;DHT22;52468;40.116;18.296;2023-09-30T04:23:36;19.90;85.00
51811;DHT22;52468;40.116;18.296;2023-09-30T04:26:04;19.90;85.00
51811;DHT22;52468;40.116;18.296;2023-09-30T04:28:32;19.80;85.20
51811;DHT22;52468;40.116;18.296;2023-09-30T04:31:01;19.90;85.20
51811;DHT22;52468;40.116;18.296;2023-09-30T04:33:30;19.80;85.20
51811;DHT22;52468;40.116;18.296;2023-09-30T04:35:58;19.90;85.30
51811;DHT22;52468;40.116;18.296;2023-09-30T04:38:26;19.90;85.40
51811;DHT22;52468;40.116;18.296;2023-09-30T04:40:54;19.90;85.20
51811;DHT22;52468;40.116;18.296;2023-09-30T04:43:22;20.00;85.20
51811;DHT22;52468;40.116;18.296;2023-09-30T04:45:50;20.00;85.20
51811;DHT22;52468;40.116;18.296;2023-09-30T04:48:21;20.00;85.20
51811;DHT22;52468;40.116;18.296;2023-09-30T04:50:49;20.00;85.40
51811;DHT22;52468;40.116;18.296;2023-09-30T04:53:19;20.00;85.40
51811;DHT22;52468;40.116;18.296;2023-09-30T04:55:47;20.00;85.40
51811;DHT22;52468;40.116;18.296;2023-09-30T04:58:17;20.10;85.40
51811;DHT22;52468;40.116;18.296;2023-09-30T05:00:45;20.10;85.60
51811;DHT22;52468;40.116;18.296;2023-09-30T05:03:13;20.20;85.40
51811;DHT22;52468;40.116;18.296;2023-09-30T05:05:41;20.30;85.30
51811;DHT22;52468;40.116;18.296;2023-09-30T05:08:09;20.30;85.30
51811;DHT22;52468;40.116;18.296;2023-09-30T05:10:39;20.40;85.40
51811;DHT22;52468;40.116;18.296;2023-09-30T05:13:06;20.50;85.20
51811;DHT22;52468;40.116;18.296;2023-09-30T05:15:34;20.50;85.20
51811;DHT22;52468;40.116;18.296;2023-09-30T05:18:03;20.60;85.10
51811;DHT22;52468;40.116;18.296;2023-09-30T05:20:32;20.70;85.00
51811;DHT22;52468;40.116;18.296;2023-09-30T05:23:00;20.80;84.70
51811;DHT22;52468;40.116;18.296;2023-09-30T05:25:28;20.90;84.90
51811;DHT22;52468;40.116;18.296;2023-09-30T05:27:56;21.00;84.60
51811;DHT22;52468;40.116;18.296;2023-09-30T05:30:24;21.00;84.60
51811;DHT22;52468;40.116;18.296;2023-09-30T05:32:52;21.10;84.30
51811;DHT22;52468;40.116;18.296;2023-09-30T05:35:20;21.20;84.30
51811;DHT22;52468;40.116;18.296;2023-09-30T05:37:50;21.40;84.00
51811;DHT22;52468;40.116;18.296;2023-09-30T05:40:21;21.50;83.90
51811;DHT22;52468;40.116;18.296;2023-09-30T05:42:58;21.60;83.50
51811;DHT22;52468;40.116;18.296;2023-09-30T05:45:27;21.70;83.50
51811;DHT22;52468;40.116;18.296;2023-09-30T05:47:55;21.90;83.20
51811;DHT22;52468;40.116;18.296;2023-09-30T05:50:25;22.00;83.00
51811;DHT22;52468;40.116;18.296;2023-09-30T05:52:54;22.10;82.50
51811;DHT22;52468;40.116;18.296;2023-09-30T05:55:23;22.10;82.80
51811;DHT22;52468;40.116;18.296;2023-09-30T05:57:53;22.20;82.40
51811;DHT22;52468;40.116;18.296;2023-09-30T06:00:22;22.30;80.90
51811;DHT22;52468;40.116;18.296;2023-09-30T06:03:02;22.40;81.60
51811;DHT22;52468;40.116;18.296;2023-09-30T06:05:32;22.50;81.20
51811;DHT22;52468;40.116;18.296;2023-09-30T06:08:03;22.50;81.10
51811;DHT22;52468;40.116;18.296;2023-09-30T06:10:31;22.50;81.70
51811;DHT22;52468;40.116;18.296;2023-09-30T06:12:59;22.70;81.70
51811;DHT22;52468;40.116;18.296;2023-09-30T06:15:27;22.80;80.80
51811;DHT22;52468;40.116;18.296;2023-09-30T06:17:56;22.90;80.20
51811;DHT22;52468;40.116;18.296;2023-09-30T06:20:26;22.90;79.70
51811;DHT22;52468;40.116;18.296;2023-09-30T06:22:55;23.00;80.20
51811;DHT22;52468;40.116;18.296;2023-09-30T06:25:23;23.00;80.20
51811;DHT22;52468;40.116;18.296;2023-09-30T06:27:53;23.10;79.90
51811;DHT22;52468;40.116;18.296;2023-09-30T06:30:25;23.30;79.80
51811;DHT22;52468;40.116;18.296;2023-09-30T06:33:01;23.40;79.10
51811;DHT22;52468;40.116;18.296;2023-09-30T06:35:32;23.50;79.40
51811;DHT22;52468;40.116;18.296;2023-09-30T06:38:12;23.50;78.00
51811;DHT22;52468;40.116;18.296;2023-09-30T06:40:39;23.60;77.80
51811;DHT22;52468;40.116;18.296;2023-09-30T06:43:10;23.70;78.10
51811;DHT22;52468;40.116;18.296;2023-09-30T06:45:38;23.90;78.00
51811;DHT22;52468;40.116;18.296;2023-09-30T06:48:10;24.00;77.00
51811;DHT22;52468;40.116;18.296;2023-09-30T06:50:48;24.10;76.80
51811;DHT22;52468;40.116;18.296;2023-09-30T06:53:17;24.20;76.50
51811;DHT22;52468;40.116;18.296;2023-09-30T06:55:45;24.00;76.50
51811;DHT22;52468;40.116;18.296;2023-09-30T06:58:13;24.20;75.90
51811;DHT22;52468;40.116;18.296;2023-09-30T07:00:41;24.40;75.40
51811;DHT22;52468;40.116;18.296;2023-09-30T07:03:09;24.40;75.30
51811;DHT22;52468;40.116;18.296;2023-09-30T07:05:37;24.50;75.50
51811;DHT22;52468;40.116;18.296;2023-09-30T07:08:07;24.80;74.70
51811;DHT22;52468;40.116;18.296;2023-09-30T07:10:35;24.80;73.50
51811;DHT22;52468;40.116;18.296;2023-09-30T07:13:04;24.80;73.00
51811;DHT22;52468;40.116;18.296;2023-09-30T07:15:34;25.00;72.90
51811;DHT22;52468;40.116;18.296;2023-09-30T07:18:02;25.00;72.10
51811;DHT22;52468;40.116;18.296;2023-09-30T07:20:30;25.10;71.80
51811;DHT22;52468;40.116;18.296;2023-09-30T07:23:00;25.10;71.80
51811;DHT22;52468;40.116;18.296;2023-09-30T07:25:33;25.40;71.20
51811;DHT22;52468;40.116;18.296;2023-09-30T07:28:02;25.30;70.30
51811;DHT22;52468;40.116;18.296;2023-09-30T07:30:30;25.40;70.20
51811;DHT22;52468;40.116;18.296;2023-09-30T07:32:58;25.50;70.10
51811;DHT22;52468;40.116;18.296;2023-09-30T07:35:25;25.50;69.70
51811;DHT22;52468;40.116;18.296;2023-09-30T07:37:53;25.80;68.80
51811;DHT22;52468;40.116;18.296;2023-09-30T07:40:21;25.80;68.40
51811;DHT22;52468;40.116;18.296;2023-09-30T07:42:49;25.90;67.50
51811;DHT22;52468;40.116;18.296;2023-09-30T07:45:17;25.90;67.70
51811;DHT22;52468;40.116;18.296;2023-09-30T07:47:45;26.00;67.10
51811;DHT22;52468;40.116;18.296;2023-09-30T07:50:16;26.10;65.70
51811;DHT22;52468;40.116;18.296;2023-09-30T07:52:45;26.20;65.10
51811;DHT22;52468;40.116;18.296;2023-09-30T07:55:13;26.30;64.40
51811;DHT22;52468;40.116;18.296;2023-09-30T07:57:43;26.20;64.80
51811;DHT22;52468;40.116;18.296;2023-09-30T08:00:11;26.40;63.70
51811;DHT22;52468;40.116;18.296;2023-09-30T08:02:43;26.70;63.40
51811;DHT22;52468;40.116;18.296;2023-09-30T08:05:11;27.00;62.50
51811;DHT22;52468;40.116;18.296;2023-09-30T08:07:39;27.30;61.60
51811;DHT22;52468;40.116;18.296;2023-09-30T08:10:08;27.50;61.00
51811;DHT22;52468;40.116;18.296;2023-09-30T08:12:41;27.50;59.30
51811;DHT22;52468;40.116;18.296;2023-09-30T08:15:09;27.60;59.20
51811;DHT22;52468;40.116;18.296;2023-09-30T08:17:40;27.50;59.20
51811;DHT22;52468;40.116;18.296;2023-09-30T08:20:08;27.20;59.90
51811;DHT22;52468;40.116;18.296;2023-09-30T08:22:37;27.00;60.30
51811;DHT22;52468;40.116;18.296;2023-09-30T08:25:05;27.10;59.50
51811;DHT22;52468;40.116;18.296;2023-09-30T08:27:34;27.00;59.50
51811;DHT22;52468;40.116;18.296;2023-09-30T08:30:02;27.10;59.90
51811;DHT22;52468;40.116;18.296;2023-09-30T08:32:36;27.40;58.40
51811;DHT22;52468;40.116;18.296;2023-09-30T08:35:04;27.20;59.00
51811;DHT22;52468;40.116;18.296;2023-09-30T08:37:33;27.10;59.40
51811;DHT22;52468;40.116;18.296;2023-09-30T08:40:02;27.20;58.20
51811;DHT22;52468;40.116;18.296;2023-09-30T08:42:32;27.60;56.30
51811;DHT22;52468;40.116;18.296;2023-09-30T08:45:03;27.80;55.20
51811;DHT22;52468;40.116;18.296;2023-09-30T08:47:34;28.00;53.70
51811;DHT22;52468;40.116;18.296;2023-09-30T08:50:06;28.00;52.90
51811;DHT22;52468;40.116;18.296;2023-09-30T08:52:40;28.00;52.00
51811;DHT22;52468;40.116;18.296;2023-09-30T08:55:09;28.00;51.80
51811;DHT22;52468;40.116;18.296;2023-09-30T08:57:41;28.00;52.00
51811;DHT22;52468;40.116;18.296;2023-09-30T09:00:13;27.90;52.50
51811;DHT22;52468;40.116;18.296;2023-09-30T09:02:41;28.00;50.70
51811;DHT22;52468;40.116;18.296;2023-09-30T09:05:10;28.20;50.10
51811;DHT22;52468;40.116;18.296;2023-09-30T09:07:39;28.30;49.80
51811;DHT22;52468;40.116;18.296;2023-09-30T09:10:09;28.40;48.70
51811;DHT22;52468;40.116;18.296;2023-09-30T09:12:39;28.70;49.20
51811;DHT22;52468;40.116;18.296;2023-09-30T09:15:19;28.50;50.70
51811;DHT22;52468;40.116;18.296;2023-09-30T09:17:47;28.50;50.40
51811;DHT22;52468;40.116;18.296;2023-09-30T09:20:22;28.10;51.30
51811;DHT22;52468;40.116;18.296;2023-09-30T09:22:52;28.10;52.00
51811;DHT22;52468;40.116;18.296;2023-09-30T09:25:22;28.10;50.60
51811;DHT22;52468;40.116;18.296;2023-09-30T09:27:54;28.30;50.50
51811;DHT22;52468;40.116;18.296;2023-09-30T09:30:26;28.50;50.00
51811;DHT22;52468;40.116;18.296;2023-09-30T09:32:55;28.60;49.60
51811;DHT22;52468;40.116;18.296;2023-09-30T09:35:25;28.70;49.70
51811;DHT22;52468;40.116;18.296;2023-09-30T09:38:03;28.60;50.10
51811;DHT22;52468;40.116;18.296;2023-09-30T09:40:33;28.60;48.90
51811;DHT22;52468;40.116;18.296;2023-09-30T09:43:02;28.60;48.40
51811;DHT22;52468;40.116;18.296;2023-09-30T09:45:35;28.70;48.50
51811;DHT22;52468;40.116;18.296;2023-09-30T09:48:04;28.60;49.30
51811;DHT22;52468;40.116;18.296;2023-09-30T09:50:32;28.60;48.90
51811;DHT22;52468;40.116;18.296;2023-09-30T09:53:00;28.60;48.00
51811;DHT22;52468;40.116;18.296;2023-09-30T09:55:28;28.80;46.90
51811;DHT22;52468;40.116;18.296;2023-09-30T09:57:58;29.00;45.90
51811;DHT22;52468;40.116;18.296;2023-09-30T10:00:26;29.10;46.70
51811;DHT22;52468;40.116;18.296;2023-09-30T10:02:55;28.90;47.40
51811;DHT22;52468;40.116;18.296;2023-09-30T10:05:22;28.90;47.90
51811;DHT22;52468;40.116;18.296;2023-09-30T10:07:54;29.00;48.10
51811;DHT22;52468;40.116;18.296;2023-09-30T10:10:25;28.90;47.10
51811;DHT22;52468;40.116;18.296;2023-09-30T10:12:53;28.80;48.20
51811;DHT22;52468;40.116;18.296;2023-09-30T10:20:34;29.20;47.30
51811;DHT22;52468;40.116;18.296;2023-09-30T10:25:46;29.70;44.40
51811;DHT22;52468;40.116;18.296;2023-09-30T10:28:37;29.90;44.50
51811;DHT22;52468;40.116;18.296;2023-09-30T10:31:21;29.80;44.80
51811;DHT22;52468;40.116;18.296;2023-09-30T10:39:00;29.60;47.00
51811;DHT22;52468;40.116;18.296;2023-09-30T10:49:49;29.30;48.00
51811;DHT22;52468;40.116;18.296;2023-09-30T10:52:23;29.30;48.90
51811;DHT22;52468;40.116;18.296;2023-09-30T10:54:52;29.30;48.50
51811;DHT22;52468;40.116;18.296;2023-09-30T10:57:27;29.20;48.10
51811;DHT22;52468;40.116;18.296;2023-09-30T11:00:12;29.30;45.80
51811;DHT22;52468;40.116;18.296;2023-09-30T11:02:51;29.50;44.60
51811;DHT22;52468;40.116;18.296;2023-09-30T11:05:19;29.50;45.20
51811;DHT22;52468;40.116;18.296;2023-09-30T11:07:53;29.40;45.20
51811;DHT22;52468;40.116;18.296;2023-09-30T11:10:21;29.30;47.90
51811;DHT22;52468;40.116;18.296;2023-09-30T11:12:56;29.30;48.30
51811;DHT22;52468;40.116;18.296;2023-09-30T11:15:25;29.30;47.40
51811;DHT22;52468;40.116;18.296;2023-09-30T11:18:16;29.30;47.90
51811;DHT22;52468;40.116;18.296;2023-09-30T11:20:45;29.40;47.90
51811;DHT22;52468;40.116;18.296;2023-09-30T11:23:13;29.40;47.30
51811;DHT22;52468;40.116;18.296;2023-09-30T11:25:42;29.40;47.60
51811;DHT22;52468;40.116;18.296;2023-09-30T11:28:16;29.30;47.70
51811;DHT22;52468;40.116;18.296;2023-09-30T11:31:00;29.40;47.30
51811;DHT22;52468;40.116;18.296;2023-09-30T11:33:30;29.60;46.10
51811;DHT22;52468;40.116;18.296;2023-09-30T11:36:05;29.80;45.00
51811;DHT22;52468;40.116;18.296;2023-09-30T11:38:35;29.80;44.60
51811;DHT22;52468;40.116;18.296;2023-09-30T11:41:05;29.90;45.00
51811;DHT22;52468;40.116;18.296;2023-09-30T11:43:34;30.00;45.00
51811;DHT22;52468;40.116;18.296;2023-09-30T11:46:11;30.10;43.00
51811;DHT22;52468;40.116;18.296;2023-09-30T11:49:04;30.00;43.40
51811;DHT22;52468;40.116;18.296;2023-09-30T11:51:42;29.80;43.80
51811;DHT22;52468;40.116;18.296;2023-09-30T11:54:16;29.70;43.50
51811;DHT22;52468;40.116;18.296;2023-09-30T11:56:44;29.80;44.80
51811;DHT22;52468;40.116;18.296;2023-09-30T11:59:13;29.80;45.50
51811;DHT22;52468;40.116;18.296;2023-09-30T12:01:41;29.60;45.60
51811;DHT22;52468;40.116;18.296;2023-09-30T12:04:09;29.50;44.40
51811;DHT22;52468;40.116;18.296;2023-09-30T12:06:38;29.70;43.50
51811;DHT22;52468;40.116;18.296;2023-09-30T12:09:06;29.80;43.80
51811;DHT22;52468;40.116;18.296;2023-09-30T12:11:37;29.80;43.60
51811;DHT22;52468;40.116;18.296;2023-09-30T12:14:06;29.60;44.70
51811;DHT22;52468;40.116;18.296;2023-09-30T12:16:35;29.80;44.20
51811;DHT22;52468;40.116;18.296;2023-09-30T12:19:03;30.00;43.40
51811;DHT22;52468;40.116;18.296;2023-09-30T12:21:33;30.00;43.70
51811;DHT22;52468;40.116;18.296;2023-09-30T12:24:01;29.80;44.00
51811;DHT22;52468;40.116;18.296;2023-09-30T12:26:31;29.60;44.80
51811;DHT22;52468;40.116;18.296;2023-09-30T12:28:59;29.60;45.30
51811;DHT22;52468;40.116;18.296;2023-09-30T12:31:27;29.80;44.00
51811;DHT22;52468;40.116;18.296;2023-09-30T12:33:56;29.70;44.60
51811;DHT22;52468;40.116;18.296;2023-09-30T12:36:25;29.60;45.40
51811;DHT22;52468;40.116;18.296;2023-09-30T12:38:53;29.80;44.50
51811;DHT22;52468;40.116;18.296;2023-09-30T12:41:22;29.70;44.80
51811;DHT22;52468;40.116;18.296;2023-09-30T12:43:50;29.80;45.50
51811;DHT22;52468;40.116;18.296;2023-09-30T12:46:18;29.90;44.20
51811;DHT22;52468;40.116;18.296;2023-09-30T12:48:46;29.80;44.60
51811;DHT22;52468;40.116;18.296;2023-09-30T12:51:16;29.80;45.20
51811;DHT22;52468;40.116;18.296;2023-09-30T12:53:43;29.90;43.80
51811;DHT22;52468;40.116;18.296;2023-09-30T12:56:12;29.90;44.30
51811;DHT22;52468;40.116;18.296;2023-09-30T12:58:41;29.70;44.80
51811;DHT22;52468;40.116;18.296;2023-09-30T13:01:09;29.50;45.50
51811;DHT22;52468;40.116;18.296;2023-09-30T13:03:46;29.50;46.60
51811;DHT22;52468;40.116;18.296;2023-09-30T13:06:15;29.50;46.60
51811;DHT22;52468;40.116;18.296;2023-09-30T13:08:46;29.50;46.80
51811;DHT22;52468;40.116;18.296;2023-09-30T13:11:14;29.40;47.40
51811;DHT22;52468;40.116;18.296;2023-09-30T13:13:42;29.30;47.40
51811;DHT22;52468;40.116;18.296;2023-09-30T13:16:11;29.20;47.60
51811;DHT22;52468;40.116;18.296;2023-09-30T13:18:39;29.20;47.20
51811;DHT22;52468;40.116;18.296;2023-09-30T13:21:07;29.40;46.30
51811;DHT22;52468;40.116;18.296;2023-09-30T13:23:35;29.30;47.80
51811;DHT22;52468;40.116;18.296;2023-09-30T13:26:03;29.20;47.80
51811;DHT22;52468;40.116;18.296;2023-09-30T13:28:30;28.80;49.00
51811;DHT22;52468;40.116;18.296;2023-09-30T13:30:58;28.90;49.30
51811;DHT22;52468;40.116;18.296;2023-09-30T13:33:26;29.10;48.60
51811;DHT22;52468;40.116;18.296;2023-09-30T13:35:54;29.10;47.60
51811;DHT22;52468;40.116;18.296;2023-09-30T13:38:23;29.20;46.90
51811;DHT22;52468;40.116;18.296;2023-09-30T13:40:51;29.10;46.80
51811;DHT22;52468;40.116;18.296;2023-09-30T13:43:19;29.20;46.00
51811;DHT22;52468;40.116;18.296;2023-09-30T13:45:48;29.20;46.80
51811;DHT22;52468;40.116;18.296;2023-09-30T13:48:16;29.10;47.10
51811;DHT22;52468;40.116;18.296;2023-09-30T13:50:44;29.20;46.50
51811;DHT22;52468;40.116;18.296;2023-09-30T13:53:12;29.20;47.10
51811;DHT22;52468;40.116;18.296;2023-09-30T13:55:40;29.10;47.60
51811;DHT22;52468;40.116;18.296;2023-09-30T13:58:07;29.00;47.20
51811;DHT22;52468;40.116;18.296;2023-09-30T14:00:36;28.90;46.70
51811;DHT22;52468;40.116;18.296;2023-09-30T14:03:04;29.00;46.30
51811;DHT22;52468;40.116;18.296;2023-09-30T14:05:33;29.10;45.80
51811;DHT22;52468;40.116;18.296;2023-09-30T14:08:01;29.30;45.50
51811;DHT22;52468;40.116;18.296;2023-09-30T14:10:29;29.80;43.40
51811;DHT22;52468;40.116;18.296;2023-09-30T14:12:57;30.10;42.00
51811;DHT22;52468;40.116;18.296;2023-09-30T14:15:25;30.40;42.00
51811;DHT22;52468;40.116;18.296;2023-09-30T14:17:55;30.80;41.00
51811;DHT22;52468;40.116;18.296;2023-09-30T14:20:24;31.40;40.30
51811;DHT22;52468;40.116;18.296;2023-09-30T14:22:52;32.30;39.10
51811;DHT22;52468;40.116;18.296;2023-09-30T14:25:22;33.00;36.80
51811;DHT22;52468;40.116;18.296;2023-09-30T14:27:53;34.30;33.50
51811;DHT22;52468;40.116;18.296;2023-09-30T14:30:23;34.60;33.30
51811;DHT22;52468;40.116;18.296;2023-09-30T14:32:52;34.70;33.30
51811;DHT22;52468;40.116;18.296;2023-09-30T14:35:21;35.00;32.90
51811;DHT22;52468;40.116;18.296;2023-09-30T14:37:49;35.50;32.20
51811;DHT22;52468;40.116;18.296;2023-09-30T14:40:17;35.50;32.50
51811;DHT22;52468;40.116;18.296;2023-09-30T14:42:45;35.10;32.90
51811;DHT22;52468;40.116;18.296;2023-09-30T14:45:13;34.80;32.90
51811;DHT22;52468;40.116;18.296;2023-09-30T14:47:41;34.70;33.00
51811;DHT22;52468;40.116;18.296;2023-09-30T14:50:09;34.80;32.70
51811;DHT22;52468;40.116;18.296;2023-09-30T14:52:37;34.40;32.70
51811;DHT22;52468;40.116;18.296;2023-09-30T14:55:05;34.30;33.20
51811;DHT22;52468;40.116;18.296;2023-09-30T14:57:33;34.50;33.20
51811;DHT22;52468;40.116;18.296;2023-09-30T15:00:01;34.70;32.10
51811;DHT22;52468;40.116;18.296;2023-09-30T15:02:30;34.60;32.60
51811;DHT22;52468;40.116;18.296;2023-09-30T15:04:58;34.40;33.50
51811;DHT22;52468;40.116;18.296;2023-09-30T15:07:26;33.90;34.00
51811;DHT22;52468;40.116;18.296;2023-09-30T15:09:54;33.10;35.50
51811;DHT22;52468;40.116;18.296;2023-09-30T15:12:22;32.10;37.10
51811;DHT22;52468;40.116;18.296;2023-09-30T15:14:50;31.40;38.60
51811;DHT22;52468;40.116;18.296;2023-09-30T15:17:19;30.90;39.80
51811;DHT22;52468;40.116;18.296;2023-09-30T15:19:47;30.60;40.30
51811;DHT22;52468;40.116;18.296;2023-09-30T15:22:15;30.00;40.90
51811;DHT22;52468;40.116;18.296;2023-09-30T15:24:42;29.10;42.20
51811;DHT22;52468;40.116;18.296;2023-09-30T15:27:10;28.50;43.20
51811;DHT22;52468;40.116;18.296;2023-09-30T15:29:38;28.00;44.30
51811;DHT22;52468;40.116;18.296;2023-09-30T15:32:06;27.70;45.90
51811;DHT22;52468;40.116;18.296;2023-09-30T15:34:38;27.50;46.30
51811;DHT22;52468;40.116;18.296;2023-09-30T15:37:07;27.30;46.90
51811;DHT22;52468;40.116;18.296;2023-09-30T15:39:40;27.20;48.00
51811;DHT22;52468;40.116;18.296;2023-09-30T15:42:08;27.10;48.30
51811;DHT22;52468;40.116;18.296;2023-09-30T15:44:36;27.00;47.70
51811;DHT22;52468;40.116;18.296;2023-09-30T15:47:06;27.00;48.30
51811;DHT22;52468;40.116;18.296;2023-09-30T15:49:35;27.00;49.60